Time;durP1;ratioP1;P1;durP2;ratioP2;P2;SDS_P1;SDS_P2;PMS_P1;PMS_P2;Temp;Humidity;BMP_temperature;BMP_pressure;BME280_temperature;BME280_humidity;BME280_pressure;Samples;Min_cycle;Max_cycle;Signal;HPM_P1;HPM_P2
2021/07/18 00:01:01;;;;;;;1.27;0.75;;;;;;;;;;5010127;28;20449;-80
2021/07/18 00:03:28;;;;;;;1.23;0.73;;;;;;;;;;5015944;28;20032;-80
2021/07/18 00:05:54;;;;;;;0.70;0.70;;;;;;;;;;4988327;28;20058;-80
2021/07/18 00:08:20;;;;;;;0.80;0.70;;;;;;;;;;4988158;28;20065;-78
2021/07/18 00:10:48;;;;;;;1.65;0.88;;;;;;;;;;4991891;28;20038;-80
2021/07/18 00:13:13;;;;;;;0.60;0.60;;;;;;;;;;4994586;28;20030;-80
2021/07/18 00:15:39;;;;;;;0.50;0.50;;;;;;;;;;4979988;28;20496;-81
2021/07/18 00:18:04;;;;;;;0.95;0.88;;;;;;;;;;5006434;28;20037;-81
2021/07/18 00:20:30;;;;;;;0.77;0.77;;;;;;;;;;4993635;28;20566;-80
2021/07/18 00:22:55;;;;;;;0.80;0.80;;;;;;;;;;4989045;28;20717;-80
2021/07/18 00:25:20;;;;;;;0.75;0.75;;;;;;;;;;5007876;28;20022;-81
2021/07/18 00:27:46;;;;;;;0.65;0.65;;;;;;;;;;5001371;28;20045;-81
2021/07/18 00:30:11;;;;;;;0.93;0.88;;;;;;;;;;5008764;28;20036;-81
2021/07/18 00:32:37;;;;;;;0.68;0.68;;;;;;;;;;4980698;28;20023;-80
2021/07/18 00:35:03;;;;;;;0.80;0.80;;;;;;;;;;4989737;28;20034;-80
2021/07/18 00:37:29;;;;;;;0.55;0.55;;;;;;;;;;5003381;28;20145;-80
2021/07/18 00:39:54;;;;;;;0.85;0.70;;;;;;;;;;5005934;28;20113;-80
2021/07/18 00:42:20;;;;;;;0.50;0.50;;;;;;;;;;4987965;28;20045;-80
2021/07/18 00:44:46;;;;;;;0.52;0.52;;;;;;;;;;4993356;28;20088;-80
2021/07/18 00:47:12;;;;;;;0.50;0.50;;;;;;;;;;4978092;28;20035;-80
2021/07/18 00:49:37;;;;;;;0.70;0.70;;;;;;;;;;4992792;28;20042;-80
2021/07/18 00:52:03;;;;;;;0.70;0.70;;;;;;;;;;5009689;28;20035;-80
2021/07/18 00:54:28;;;;;;;0.70;0.70;;;;;;;;;;4975207;28;20014;-80
2021/07/18 00:56:54;;;;;;;0.60;0.60;;;;;;;;;;4996598;28;20399;-80
2021/07/18 00:59:19;;;;;;;0.70;0.70;;;;;;;;;;5005734;28;20034;-80
2021/07/18 01:01:45;;;;;;;0.75;0.60;;;;;;;;;;5005310;28;20092;-80
2021/07/18 01:04:10;;;;;;;0.55;0.55;;;;;;;;;;4998946;28;20030;-80
2021/07/18 01:06:36;;;;;;;0.43;0.43;;;;;;;;;;4983389;28;20023;-80
2021/07/18 01:09:02;;;;;;;0.50;0.50;;;;;;;;;;5004742;28;20163;-80
2021/07/18 01:11:27;;;;;;;1.40;0.63;;;;;;;;;;5009407;28;20069;-80
2021/07/18 01:13:53;;;;;;;0.50;0.50;;;;;;;;;;4991314;28;20050;-80
2021/07/18 01:16:18;;;;;;;0.70;0.70;;;;;;;;;;5005507;28;20080;-79
2021/07/18 01:18:43;;;;;;;0.50;0.50;;;;;;;;;;5010971;28;20075;-78
2021/07/18 01:21:09;;;;;;;0.50;0.50;;;;;;;;;;5012084;28;20014;-79
2021/07/18 01:23:37;;;;;;;0.50;0.50;;;;;;;;;;4996905;28;20034;-78
2021/07/18 01:26:05;;;;;;;0.60;0.60;;;;;;;;;;4985503;28;20058;-82
2021/07/18 01:28:30;;;;;;;0.50;0.50;;;;;;;;;;4988128;28;20026;-82
2021/07/18 01:30:56;;;;;;;0.50;0.50;;;;;;;;;;4988733;28;20028;-82
2021/07/18 01:33:21;;;;;;;0.65;0.60;;;;;;;;;;5008970;28;20400;-83
2021/07/18 01:35:46;;;;;;;0.60;0.60;;;;;;;;;;4986524;28;20054;-83
2021/07/18 01:38:12;;;;;;;0.60;0.60;;;;;;;;;;5002488;28;20081;-83
2021/07/18 01:40:38;;;;;;;0.50;0.50;;;;;;;;;;4991446;28;20026;-83
2021/07/18 01:43:04;;;;;;;0.50;0.50;;;;;;;;;;5004248;28;20030;-82
2021/07/18 01:45:29;;;;;;;0.52;0.52;;;;;;;;;;5012224;28;20076;-82
2021/07/18 01:47:55;;;;;;;0.60;0.60;;;;;;;;;;4988405;28;20042;-83
2021/07/18 01:50:21;;;;;;;0.70;0.70;;;;;;;;;;5003637;28;20026;-83
2021/07/18 01:52:48;;;;;;;0.85;0.73;;;;;;;;;;5010959;28;20027;-83
2021/07/18 01:55:17;;;;;;;0.60;0.60;;;;;;;;;;4988403;28;20113;-83
2021/07/18 01:57:44;;;;;;;0.65;0.65;;;;;;;;;;5007556;28;20042;-83
2021/07/18 02:00:11;;;;;;;0.70;0.70;;;;;;;;;;5006093;28;20038;-83
2021/07/18 02:02:57;;;;;;;0.60;0.60;;;;;;;;;;5005492;28;20037;-83
2021/07/18 02:05:23;;;;;;;0.60;0.60;;;;;;;;;;4995236;28;20448;-83
2021/07/18 02:07:53;;;;;;;0.68;0.68;;;;;;;;;;5001378;28;20023;-83
2021/07/18 02:10:19;;;;;;;0.77;0.77;;;;;;;;;;5020012;28;20045;-82
2021/07/18 02:12:45;;;;;;;0.80;0.80;;;;;;;;;;5005680;28;20017;-82
2021/07/18 02:15:11;;;;;;;0.60;0.60;;;;;;;;;;4992945;28;20034;-82
2021/07/18 02:17:37;;;;;;;0.82;0.82;;;;;;;;;;5010583;28;20036;-82
2021/07/18 02:20:09;;;;;;;0.82;0.82;;;;;;;;;;5013254;28;20536;-82
2021/07/18 02:22:41;;;;;;;0.73;0.73;;;;;;;;;;5009104;28;20038;-82
2021/07/18 02:25:07;;;;;;;0.60;0.60;;;;;;;;;;4986684;28;20038;-82
2021/07/18 02:27:32;;;;;;;0.50;0.50;;;;;;;;;;4984169;28;20014;-82
2021/07/18 02:29:58;;;;;;;0.60;0.60;;;;;;;;;;4998371;28;20034;-83
2021/07/18 02:32:23;;;;;;;0.70;0.70;;;;;;;;;;4992564;28;20030;-82
2021/07/18 02:34:48;;;;;;;0.73;0.73;;;;;;;;;;5000848;28;20022;-83
2021/07/18 02:37:14;;;;;;;0.70;0.70;;;;;;;;;;4998079;28;20026;-82
2021/07/18 02:39:39;;;;;;;0.82;0.73;;;;;;;;;;5012330;28;20333;-82
2021/07/18 02:42:06;;;;;;;0.52;0.52;;;;;;;;;;5012930;28;20116;-82
2021/07/18 02:44:31;;;;;;;0.60;0.60;;;;;;;;;;5012735;28;20104;-82
2021/07/18 02:46:57;;;;;;;1.20;0.80;;;;;;;;;;4996305;28;20460;-82
2021/07/18 02:49:22;;;;;;;0.40;0.40;;;;;;;;;;5014234;28;20036;-82
2021/07/18 02:51:47;;;;;;;0.70;0.70;;;;;;;;;;4996219;28;20137;-82
2021/07/18 02:54:13;;;;;;;0.70;0.70;;;;;;;;;;5003459;28;20838;-82
2021/07/18 02:56:38;;;;;;;0.50;0.50;;;;;;;;;;5003960;28;20026;-82
2021/07/18 02:59:03;;;;;;;0.60;0.60;;;;;;;;;;5015492;28;20029;-83
2021/07/18 03:01:29;;;;;;;0.50;0.50;;;;;;;;;;5015147;28;20036;-82
2021/07/18 03:03:54;;;;;;;0.60;0.60;;;;;;;;;;5024126;28;20038;-82
2021/07/18 03:06:19;;;;;;;0.60;0.60;;;;;;;;;;5022559;28;20170;-82
2021/07/18 03:08:45;;;;;;;0.95;0.70;;;;;;;;;;4996757;28;20018;-82
2021/07/18 03:11:10;;;;;;;1.02;0.80;;;;;;;;;;5020058;28;20045;-82
2021/07/18 03:13:36;;;;;;;0.60;0.60;;;;;;;;;;4996524;28;20029;-82
2021/07/18 03:16:01;;;;;;;0.55;0.55;;;;;;;;;;5009453;28;20038;-82
2021/07/18 03:18:27;;;;;;;0.70;0.70;;;;;;;;;;5008816;28;20225;-82
2021/07/18 03:20:52;;;;;;;0.63;0.63;;;;;;;;;;4994078;28;20338;-82
2021/07/18 03:23:17;;;;;;;0.43;0.43;;;;;;;;;;5018992;28;20026;-82
2021/07/18 03:25:43;;;;;;;0.60;0.60;;;;;;;;;;5001551;28;20514;-82
2021/07/18 03:28:08;;;;;;;0.68;0.68;;;;;;;;;;5017963;28;20057;-82
2021/07/18 03:30:33;;;;;;;0.73;0.73;;;;;;;;;;5013603;28;20030;-82
2021/07/18 03:32:59;;;;;;;0.60;0.60;;;;;;;;;;5014429;28;20034;-82
2021/07/18 03:35:24;;;;;;;0.80;0.80;;;;;;;;;;5013543;28;20555;-82
2021/07/18 03:37:49;;;;;;;0.70;0.70;;;;;;;;;;5014997;28;20479;-82
2021/07/18 03:40:16;;;;;;;0.60;0.60;;;;;;;;;;5009864;28;20045;-82
2021/07/18 03:42:42;;;;;;;0.70;0.70;;;;;;;;;;5012312;28;20087;-82
2021/07/18 03:45:08;;;;;;;0.80;0.80;;;;;;;;;;4996791;28;20034;-82
2021/07/18 03:47:33;;;;;;;0.65;0.65;;;;;;;;;;5015216;28;20409;-82
2021/07/18 03:49:59;;;;;;;0.60;0.60;;;;;;;;;;4998876;28;20041;-82
2021/07/18 03:52:24;;;;;;;0.50;0.50;;;;;;;;;;5014728;28;20069;-82
2021/07/18 03:54:49;;;;;;;0.60;0.60;;;;;;;;;;4998159;28;20026;-82
2021/07/18 03:57:15;;;;;;;0.85;0.60;;;;;;;;;;5012361;28;20366;-82
2021/07/18 03:59:40;;;;;;;0.60;0.60;;;;;;;;;;5007700;28;20057;-83
2021/07/18 04:02:05;;;;;;;0.60;0.60;;;;;;;;;;4989159;28;20038;-82
2021/07/18 04:04:34;;;;;;;1.00;0.60;;;;;;;;;;4984960;28;20046;-82
2021/07/18 04:06:59;;;;;;;0.95;0.80;;;;;;;;;;5004832;28;20077;-82
2021/07/18 04:09:25;;;;;;;0.60;0.60;;;;;;;;;;4984438;28;20054;-82
2021/07/18 04:11:50;;;;;;;0.75;0.75;;;;;;;;;;4991659;28;20110;-82
2021/07/18 04:14:16;;;;;;;0.55;0.55;;;;;;;;;;5001841;28;20030;-82
2021/07/18 04:16:41;;;;;;;0.50;0.50;;;;;;;;;;4994818;28;20030;-82
2021/07/18 04:19:07;;;;;;;0.60;0.60;;;;;;;;;;5007549;28;20065;-82
2021/07/18 04:21:32;;;;;;;0.50;0.50;;;;;;;;;;5004610;28;20451;-83
2021/07/18 04:24:00;;;;;;;0.60;0.60;;;;;;;;;;5002887;28;20022;-82
2021/07/18 04:26:25;;;;;;;0.55;0.55;;;;;;;;;;5007320;28;20096;-82
2021/07/18 04:28:53;;;;;;;0.60;0.60;;;;;;;;;;5008757;28;20128;-82
2021/07/18 04:31:18;;;;;;;0.65;0.65;;;;;;;;;;4999167;28;20034;-82
2021/07/18 04:33:44;;;;;;;0.45;0.45;;;;;;;;;;5002508;28;20060;-82
2021/07/18 04:36:10;;;;;;;0.50;0.50;;;;;;;;;;5001638;28;20403;-83
2021/07/18 04:38:35;;;;;;;0.77;0.77;;;;;;;;;;5008352;28;20034;-83
2021/07/18 04:41:00;;;;;;;0.60;0.60;;;;;;;;;;5005518;28;20131;-82
2021/07/18 04:43:26;;;;;;;0.80;0.80;;;;;;;;;;5001713;28;20145;-82
2021/07/18 04:45:51;;;;;;;0.82;0.77;;;;;;;;;;5005570;28;20069;-83
2021/07/18 04:48:17;;;;;;;0.90;0.88;;;;;;;;;;5002506;28;20030;-81
2021/07/18 04:50:43;;;;;;;0.60;0.60;;;;;;;;;;5009423;28;20339;-81
2021/07/18 04:53:08;;;;;;;0.50;0.50;;;;;;;;;;4999017;28;20033;-80
2021/07/18 04:55:33;;;;;;;0.70;0.70;;;;;;;;;;5006965;28;20022;-81
2021/07/18 04:57:59;;;;;;;0.60;0.60;;;;;;;;;;4983505;28;20036;-80
2021/07/18 05:00:24;;;;;;;0.60;0.60;;;;;;;;;;4983481;28;20333;-82
2021/07/18 05:02:50;;;;;;;0.40;0.40;;;;;;;;;;5007200;28;20026;-83
2021/07/18 05:05:16;;;;;;;0.40;0.40;;;;;;;;;;5010145;28;20054;-83
2021/07/18 05:07:48;;;;;;;0.47;0.47;;;;;;;;;;5008196;28;20554;-83
2021/07/18 05:10:14;;;;;;;0.50;0.50;;;;;;;;;;4989467;28;20543;-82
2021/07/18 05:12:39;;;;;;;0.40;0.40;;;;;;;;;;5009908;28;20036;-81
2021/07/18 05:15:07;;;;;;;0.50;0.50;;;;;;;;;;4996389;28;20049;-81
2021/07/18 05:17:32;;;;;;;0.50;0.50;;;;;;;;;;5011481;28;20039;-81
2021/07/18 05:19:58;;;;;;;0.45;0.45;;;;;;;;;;5005983;28;20038;-81
2021/07/18 05:22:24;;;;;;;0.40;0.40;;;;;;;;;;5004038;28;20034;-80
2021/07/18 05:24:50;;;;;;;0.57;0.57;;;;;;;;;;4987537;28;20034;-81
2021/07/18 05:27:15;;;;;;;0.55;0.55;;;;;;;;;;5004329;28;20065;-80
2021/07/18 05:29:41;;;;;;;0.60;0.60;;;;;;;;;;4994517;28;20042;-81
2021/07/18 05:32:06;;;;;;;0.50;0.50;;;;;;;;;;4975933;28;20037;-81
2021/07/18 05:34:32;;;;;;;0.57;0.57;;;;;;;;;;5009367;28;20054;-80
2021/07/18 05:36:57;;;;;;;0.43;0.43;;;;;;;;;;4996840;28;20034;-81
2021/07/18 05:39:22;;;;;;;0.60;0.60;;;;;;;;;;4992453;28;20046;-81
2021/07/18 05:41:48;;;;;;;0.50;0.50;;;;;;;;;;4988740;28;20404;-81
2021/07/18 05:44:13;;;;;;;1.00;0.70;;;;;;;;;;4983214;28;20454;-81
2021/07/18 05:46:38;;;;;;;0.50;0.50;;;;;;;;;;5005188;28;20082;-81
2021/07/18 05:49:04;;;;;;;0.40;0.40;;;;;;;;;;4995666;28;20075;-81
2021/07/18 05:51:29;;;;;;;0.50;0.50;;;;;;;;;;4995898;28;20026;-81
2021/07/18 05:53:54;;;;;;;1.10;0.60;;;;;;;;;;4995247;28;20045;-81
2021/07/18 05:56:20;;;;;;;0.43;0.43;;;;;;;;;;5005694;28;20148;-81
2021/07/18 05:58:45;;;;;;;0.50;0.50;;;;;;;;;;5008525;28;20076;-81
2021/07/18 06:01:10;;;;;;;0.50;0.50;;;;;;;;;;4993115;28;20038;-80
2021/07/18 06:03:36;;;;;;;0.60;0.60;;;;;;;;;;5001731;28;20094;-80
2021/07/18 06:06:01;;;;;;;0.40;0.40;;;;;;;;;;5012173;28;20041;-81
2021/07/18 06:08:27;;;;;;;0.50;0.50;;;;;;;;;;4994255;28;20096;-82
2021/07/18 06:10:54;;;;;;;0.50;0.50;;;;;;;;;;5019434;28;20609;-81
2021/07/18 06:13:20;;;;;;;0.50;0.50;;;;;;;;;;5016276;28;20034;-80
2021/07/18 06:15:45;;;;;;;0.45;0.45;;;;;;;;;;5008126;28;20034;-81
2021/07/18 06:18:10;;;;;;;0.60;0.60;;;;;;;;;;5011051;28;20040;-81
2021/07/18 06:20:38;;;;;;;0.60;0.60;;;;;;;;;;5015328;28;20090;-80
2021/07/18 06:23:04;;;;;;;0.52;0.52;;;;;;;;;;4997742;28;20034;-80
2021/07/18 06:25:29;;;;;;;0.30;0.30;;;;;;;;;;4996669;28;20042;-81
2021/07/18 06:27:55;;;;;;;0.35;0.35;;;;;;;;;;4986039;28;20042;-80
2021/07/18 06:30:20;;;;;;;0.38;0.38;;;;;;;;;;4992053;28;20031;-81
2021/07/18 06:32:45;;;;;;;0.40;0.40;;;;;;;;;;4989862;28;20060;-81
2021/07/18 06:35:11;;;;;;;0.40;0.40;;;;;;;;;;5017363;28;20045;-81
2021/07/18 06:37:36;;;;;;;0.57;0.57;;;;;;;;;;5026206;28;20028;-81
2021/07/18 06:40:04;;;;;;;0.35;0.35;;;;;;;;;;5018351;28;20029;-82
2021/07/18 06:42:29;;;;;;;0.63;0.55;;;;;;;;;;5000501;28;20042;-82
2021/07/18 06:44:58;;;;;;;0.45;0.45;;;;;;;;;;4991063;28;20472;-81
2021/07/18 06:47:26;;;;;;;0.50;0.50;;;;;;;;;;4989122;28;20503;-81
2021/07/18 06:49:52;;;;;;;0.50;0.50;;;;;;;;;;5006846;28;20070;-82
2021/07/18 06:52:17;;;;;;;0.75;0.50;;;;;;;;;;5002691;28;20038;-81
2021/07/18 06:54:43;;;;;;;0.38;0.38;;;;;;;;;;4997474;28;20026;-76
2021/07/18 06:57:08;;;;;;;0.20;0.20;;;;;;;;;;5014309;28;20084;-76
2021/07/18 06:59:34;;;;;;;0.47;0.45;;;;;;;;;;4991176;28;20464;-76
2021/07/18 07:01:59;;;;;;;0.40;0.40;;;;;;;;;;4996987;28;20140;-75
2021/07/18 07:04:25;;;;;;;0.40;0.40;;;;;;;;;;5000324;28;20484;-76
2021/07/18 07:06:50;;;;;;;0.40;0.40;;;;;;;;;;5007677;28;20022;-77
2021/07/18 07:09:15;;;;;;;0.20;0.20;;;;;;;;;;5008780;28;20077;-76
2021/07/18 07:11:41;;;;;;;0.30;0.30;;;;;;;;;;5007095;28;20034;-75
2021/07/18 07:14:06;;;;;;;0.32;0.30;;;;;;;;;;5008202;28;20010;-76
2021/07/18 07:16:36;;;;;;;0.40;0.40;;;;;;;;;;5008038;28;20109;-77
2021/07/18 07:19:01;;;;;;;0.30;0.30;;;;;;;;;;5007588;28;20038;-76
2021/07/18 07:21:27;;;;;;;0.30;0.30;;;;;;;;;;4990730;28;20128;-77
2021/07/18 07:23:52;;;;;;;0.30;0.30;;;;;;;;;;5000310;28;20122;-76
2021/07/18 07:26:17;;;;;;;0.22;0.22;;;;;;;;;;5007759;28;20027;-75
2021/07/18 07:28:43;;;;;;;0.40;0.40;;;;;;;;;;5006594;28;20045;-76
2021/07/18 07:31:08;;;;;;;0.30;0.30;;;;;;;;;;4990337;28;20515;-76
2021/07/18 07:33:35;;;;;;;0.30;0.30;;;;;;;;;;5005937;28;20026;-76
2021/07/18 07:36:01;;;;;;;0.30;0.30;;;;;;;;;;5009353;28;20030;-75
2021/07/18 07:38:26;;;;;;;0.52;0.50;;;;;;;;;;4999793;28;20041;-75
2021/07/18 07:40:52;;;;;;;0.40;0.40;;;;;;;;;;4992269;28;20033;-75
2021/07/18 07:43:17;;;;;;;0.85;0.50;;;;;;;;;;5002573;28;20032;-76
2021/07/18 07:45:45;;;;;;;0.32;0.30;;;;;;;;;;4998113;28;20041;-76
2021/07/18 07:48:10;;;;;;;0.30;0.30;;;;;;;;;;5002835;28;20471;-76
2021/07/18 07:50:36;;;;;;;0.50;0.50;;;;;;;;;;4992435;28;20088;-76
2021/07/18 07:53:05;;;;;;;0.35;0.35;;;;;;;;;;5006042;28;20057;-76
2021/07/18 07:55:31;;;;;;;0.35;0.35;;;;;;;;;;5006247;28;20037;-76
2021/07/18 07:57:56;;;;;;;0.22;0.22;;;;;;;;;;5002101;28;20276;-77
2021/07/18 08:00:22;;;;;;;0.40;0.40;;;;;;;;;;4999270;28;20627;-77
2021/07/18 08:02:49;;;;;;;0.52;0.40;;;;;;;;;;5001905;28;20461;-77
2021/07/18 08:05:17;;;;;;;0.40;0.40;;;;;;;;;;5003207;28;20040;-77
2021/07/18 08:07:43;;;;;;;0.30;0.30;;;;;;;;;;5001969;28;20030;-77
2021/07/18 08:10:10;;;;;;;0.35;0.32;;;;;;;;;;5004771;28;20029;-77
2021/07/18 08:12:35;;;;;;;0.70;0.50;;;;;;;;;;5005935;28;20104;-75
2021/07/18 08:15:01;;;;;;;0.30;0.30;;;;;;;;;;5002345;28;20399;-76
2021/07/18 08:17:26;;;;;;;0.20;0.20;;;;;;;;;;5003145;28;20030;-76
2021/07/18 08:19:52;;;;;;;0.40;0.40;;;;;;;;;;5003992;28;20438;-76
2021/07/18 08:22:17;;;;;;;0.30;0.30;;;;;;;;;;5006013;28;20081;-76
2021/07/18 08:24:43;;;;;;;0.30;0.30;;;;;;;;;;5008081;28;20049;-76
2021/07/18 08:27:08;;;;;;;0.30;0.30;;;;;;;;;;4999988;28;20042;-76
2021/07/18 08:29:33;;;;;;;0.35;0.35;;;;;;;;;;4998784;28;20030;-76
2021/07/18 08:31:59;;;;;;;0.20;0.20;;;;;;;;;;5002435;28;20063;-76
2021/07/18 08:34:25;;;;;;;0.43;0.40;;;;;;;;;;5006117;28;20117;-76
2021/07/18 08:36:50;;;;;;;0.38;0.38;;;;;;;;;;4999271;28;20050;-76
2021/07/18 08:39:16;;;;;;;0.32;0.32;;;;;;;;;;5000990;28;20026;-74
2021/07/18 08:41:43;;;;;;;0.38;0.38;;;;;;;;;;4989235;28;20045;-74
2021/07/18 08:44:10;;;;;;;0.30;0.30;;;;;;;;;;5005082;28;20037;-74
2021/07/18 08:46:36;;;;;;;;;;;;;;;;;;5007085;28;20037;-74
2021/07/18 08:49:01;;;;;;;0.80;0.47;;;;;;;;;;4998415;28;19913;-74
2021/07/18 08:51:29;;;;;;;0.40;0.40;;;;;;;;;;5002131;28;20065;-74
2021/07/18 08:53:56;;;;;;;0.40;0.40;;;;;;;;;;5007012;28;20025;-74
2021/07/18 08:56:22;;;;;;;0.40;0.40;;;;;;;;;;4998816;28;20101;-74
2021/07/18 08:58:48;;;;;;;0.30;0.30;;;;;;;;;;5003892;28;20046;-74
2021/07/18 09:01:13;;;;;;;0.40;0.40;;;;;;;;;;5001520;28;20076;-74
2021/07/18 09:03:39;;;;;;;0.40;0.40;;;;;;;;;;5005515;28;20124;-75
2021/07/18 09:06:08;;;;;;;0.30;0.30;;;;;;;;;;5000817;28;20062;-75
2021/07/18 09:08:40;;;;;;;0.30;0.30;;;;;;;;;;4991355;28;20041;-75
2021/07/18 09:11:14;;;;;;;0.20;0.20;;;;;;;;;;5005086;28;20033;-74
2021/07/18 09:13:42;;;;;;;0.20;0.20;;;;;;;;;;4997612;28;20050;-74
2021/07/18 09:16:08;;;;;;;0.20;0.20;;;;;;;;;;4988861;28;20042;-73
2021/07/18 09:18:34;;;;;;;0.30;0.30;;;;;;;;;;4988576;28;20023;-73
2021/07/18 09:21:00;;;;;;;0.30;0.30;;;;;;;;;;4983875;28;20484;-73
2021/07/18 09:23:28;;;;;;;0.40;0.40;;;;;;;;;;5004544;28;20394;-73
2021/07/18 09:26:12;;;;;;;0.30;0.30;;;;;;;;;;5002996;28;20034;-74
2021/07/18 09:28:38;;;;;;;0.30;0.30;;;;;;;;;;5005099;28;20058;-74
2021/07/18 09:31:23;;;;;;;0.30;0.30;;;;;;;;;;5003707;28;20073;-75
2021/07/18 09:33:48;;;;;;;0.43;0.43;;;;;;;;;;4995135;28;20030;-74
2021/07/18 09:36:14;;;;;;;0.30;0.30;;;;;;;;;;5007200;28;20034;-74
2021/07/18 09:38:40;;;;;;;0.20;0.20;;;;;;;;;;4998903;28;20110;-75
2021/07/18 09:41:06;;;;;;;0.20;0.20;;;;;;;;;;5003897;28;20030;-73
2021/07/18 09:43:31;;;;;;;0.28;0.28;;;;;;;;;;4997447;28;20260;-74
2021/07/18 09:45:59;;;;;;;0.27;0.27;;;;;;;;;;5002080;28;20045;-75
2021/07/18 09:48:36;;;;;;;0.20;0.20;;;;;;;;;;5003353;28;20040;-76
2021/07/18 09:51:08;;;;;;;0.25;0.20;;;;;;;;;;4997435;28;20065;-76
2021/07/18 09:53:33;;;;;;;0.40;0.28;;;;;;;;;;4997750;28;20080;-75
2021/07/18 09:55:59;;;;;;;0.23;0.23;;;;;;;;;;5001476;28;20026;-74
2021/07/18 09:58:25;;;;;;;0.30;0.30;;;;;;;;;;5004111;28;20030;-75
2021/07/18 10:00:51;;;;;;;0.20;0.20;;;;;;;;;;4999938;28;20030;-75
2021/07/18 10:03:22;;;;;;;0.27;0.27;;;;;;;;;;4992791;28;20049;-73
2021/07/18 10:06:09;;;;;;;0.20;0.20;;;;;;;;;;5013202;28;20060;-77
2021/07/18 10:08:38;;;;;;;0.52;0.40;;;;;;;;;;5011644;28;20040;-76
2021/07/18 10:11:04;;;;;;;0.30;0.30;;;;;;;;;;5002700;28;20139;-75
2021/07/18 10:13:30;;;;;;;0.10;0.10;;;;;;;;;;4995205;28;20026;-75
2021/07/18 10:15:55;;;;;;;1.03;0.43;;;;;;;;;;4984085;28;20089;-75
2021/07/18 10:18:23;;;;;;;0.30;0.30;;;;;;;;;;4998491;28;20272;-76
2021/07/18 10:20:48;;;;;;;0.25;0.25;;;;;;;;;;5003212;28;20026;-77
2021/07/18 10:23:16;;;;;;;0.27;0.27;;;;;;;;;;4977189;28;20490;-76
2021/07/18 10:25:41;;;;;;;0.45;0.40;;;;;;;;;;4997630;28;20431;-75
2021/07/18 10:28:06;;;;;;;0.30;0.30;;;;;;;;;;4986729;28;20100;-76
2021/07/18 10:30:34;;;;;;;0.27;0.20;;;;;;;;;;5000304;28;20431;-75
2021/07/18 10:33:00;;;;;;;0.25;0.25;;;;;;;;;;4995497;28;20030;-75
2021/07/18 10:35:26;;;;;;;0.28;0.28;;;;;;;;;;4995306;28;20121;-75
2021/07/18 10:37:54;;;;;;;0.70;0.30;;;;;;;;;;4997656;28;20417;-75
2021/07/18 10:40:22;;;;;;;0.43;0.40;;;;;;;;;;4985146;28;20038;-75
2021/07/18 10:42:51;;;;;;;0.43;0.30;;;;;;;;;;4986253;28;20045;-76
2021/07/18 10:45:28;;;;;;;0.25;0.22;;;;;;;;;;4979623;28;20042;-77
2021/07/18 10:48:09;;;;;;;0.47;0.40;;;;;;;;;;4979072;28;20099;-77
2021/07/18 10:50:43;;;;;;;0.20;0.20;;;;;;;;;;5004629;28;20029;-76
2021/07/18 10:53:25;;;;;;;0.20;0.20;;;;;;;;;;5001957;28;20030;-77
2021/07/18 10:55:51;;;;;;;0.40;0.35;;;;;;;;;;5001327;28;20121;-77
2021/07/18 10:58:35;;;;;;;0.20;0.20;;;;;;;;;;4997847;28;20543;-77
2021/07/18 11:01:00;;;;;;;0.20;0.20;;;;;;;;;;5001176;28;20589;-77
2021/07/18 11:03:32;;;;;;;0.30;0.30;;;;;;;;;;4998872;28;20030;-77
2021/07/18 11:06:19;;;;;;;0.10;0.10;;;;;;;;;;5006012;28;20038;-77
2021/07/18 11:09:03;;;;;;;0.30;0.30;;;;;;;;;;4998054;28;20061;-76
2021/07/18 11:11:40;;;;;;;0.28;0.28;;;;;;;;;;4999187;28;20056;-76
2021/07/18 11:14:05;;;;;;;;;;;;;;;;;;4983905;28;20042;-76
2021/07/18 11:16:50;;;;;;;0.30;0.30;;;;;;;;;;4998059;28;19917;-76
2021/07/18 11:19:34;;;;;;;0.30;0.30;;;;;;;;;;5004348;28;20064;-76
2021/07/18 11:21:59;;;;;;;0.40;0.30;;;;;;;;;;5005962;28;20038;-77
2021/07/18 11:24:44;;;;;;;0.40;0.40;;;;;;;;;;4987226;28;20031;-76
2021/07/18 11:27:34;;;;;;;0.30;0.30;;;;;;;;;;5012574;28;20026;-76
2021/07/18 11:30:00;;;;;;;0.20;0.20;;;;;;;;;;4994819;28;20045;-76
2021/07/18 11:32:27;;;;;;;0.30;0.30;;;;;;;;;;5006033;28;20030;-77
2021/07/18 11:34:55;;;;;;;0.20;0.20;;;;;;;;;;5005769;28;20037;-76
2021/07/18 11:37:25;;;;;;;0.40;0.40;;;;;;;;;;5005360;28;20033;-77
2021/07/18 11:39:51;;;;;;;0.20;0.20;;;;;;;;;;4991113;28;20109;-77
2021/07/18 11:42:19;;;;;;;0.22;0.22;;;;;;;;;;5003150;28;20484;-74
2021/07/18 11:44:46;;;;;;;0.80;0.20;;;;;;;;;;5005319;28;20030;-75
2021/07/18 11:47:13;;;;;;;0.10;0.10;;;;;;;;;;4986803;28;20424;-75
2021/07/18 11:49:48;;;;;;;0.10;0.10;;;;;;;;;;4997807;28;20041;-75
2021/07/18 11:52:14;;;;;;;0.30;0.20;;;;;;;;;;5001844;28;20033;-75
2021/07/18 11:54:39;;;;;;;;;;;;;;;;;;5002010;28;20026;-75
2021/07/18 11:57:09;;;;;;;0.10;0.10;;;;;;;;;;5006216;28;20002;-76
2021/07/18 11:59:36;;;;;;;0.40;0.40;;;;;;;;;;4998657;28;20038;-75
2021/07/18 12:02:01;;;;;;;0.30;0.30;;;;;;;;;;4998930;28;20025;-75
2021/07/18 12:04:29;;;;;;;0.30;0.30;;;;;;;;;;5002554;28;20052;-75
2021/07/18 12:07:02;;;;;;;0.45;0.20;;;;;;;;;;4990887;28;20512;-75
2021/07/18 12:09:29;;;;;;;1.13;0.20;;;;;;;;;;5008146;28;20165;-75
2021/07/18 12:11:56;;;;;;;0.20;0.10;;;;;;;;;;5013678;28;20038;-75
2021/07/18 12:14:22;;;;;;;0.52;0.30;;;;;;;;;;4991598;28;20591;-75
2021/07/18 12:16:51;;;;;;;0.45;0.30;;;;;;;;;;4998338;28;20111;-75
2021/07/18 12:19:16;;;;;;;0.20;0.20;;;;;;;;;;4998608;28;20026;-75
2021/07/18 12:21:45;;;;;;;0.10;0.10;;;;;;;;;;4998856;28;20240;-75
2021/07/18 12:24:21;;;;;;;0.30;0.30;;;;;;;;;;4997949;28;20548;-75
2021/07/18 12:26:47;;;;;;;0.25;0.20;;;;;;;;;;4999802;28;20037;-75
2021/07/18 12:29:13;;;;;;;;;;;;;;;;;;5002466;28;20030;-75
2021/07/18 12:31:41;;;;;;;0.10;0.10;;;;;;;;;;4998161;28;20299;-76
2021/07/18 12:34:07;;;;;;;0.13;0.13;;;;;;;;;;5006466;28;20119;-75
2021/07/18 12:36:33;;;;;;;;;;;;;;;;;;4999282;28;20472;-75
2021/07/18 12:39:14;;;;;;;0.22;0.20;;;;;;;;;;4999910;28;19913;-75
2021/07/18 12:41:40;;;;;;;0.20;0.20;;;;;;;;;;4975230;28;20030;-74
2021/07/18 12:44:05;;;;;;;;;;;;;;;;;;5002386;28;20096;-75
2021/07/18 12:46:35;;;;;;;0.27;0.27;;;;;;;;;;5005088;28;19925;-75
2021/07/18 12:49:13;;;;;;;0.13;0.13;;;;;;;;;;4996949;28;20508;-75
2021/07/18 12:51:40;;;;;;;0.25;0.20;;;;;;;;;;4980945;28;20030;-74
2021/07/18 12:54:06;;;;;;;0.30;0.30;;;;;;;;;;4998589;28;20124;-75
2021/07/18 12:56:31;;;;;;;0.40;0.13;;;;;;;;;;4999372;28;20116;-75
2021/07/18 12:58:57;;;;;;;;;;;;;;;;;;5005190;28;20033;-75
2021/07/18 13:01:29;;;;;;;1.23;0.30;;;;;;;;;;5003957;28;19956;-76
2021/07/18 13:04:08;;;;;;;0.25;0.20;;;;;;;;;;4993336;28;20583;-76
2021/07/18 13:06:40;;;;;;;0.10;0.10;;;;;;;;;;5000324;28;20026;-76
2021/07/18 13:09:17;;;;;;;0.38;0.20;;;;;;;;;;4997134;28;20672;-76
2021/07/18 13:11:44;;;;;;;0.30;0.30;;;;;;;;;;4987302;28;20089;-77
2021/07/18 13:14:19;;;;;;;0.20;0.20;;;;;;;;;;5000578;28;20026;-76
2021/07/18 13:16:45;;;;;;;0.60;0.20;;;;;;;;;;4997301;28;20504;-76
2021/07/18 13:19:12;;;;;;;0.20;0.20;;;;;;;;;;4979529;28;20040;-76
2021/07/18 13:21:37;;;;;;;0.20;0.20;;;;;;;;;;5003160;28;20492;-76
2021/07/18 13:24:05;;;;;;;0.73;0.40;;;;;;;;;;4996863;28;20032;-75
2021/07/18 13:26:34;;;;;;;0.30;0.30;;;;;;;;;;5013142;28;20022;-76
2021/07/18 13:29:16;;;;;;;0.38;0.28;;;;;;;;;;4998078;28;20512;-76
2021/07/18 13:31:43;;;;;;;0.22;0.20;;;;;;;;;;4977197;28;20041;-75
2021/07/18 13:34:09;;;;;;;0.17;0.17;;;;;;;;;;5001324;28;20110;-76
2021/07/18 13:36:34;;;;;;;0.77;0.40;;;;;;;;;;5003402;28;20026;-76
2021/07/18 13:39:10;;;;;;;0.20;0.20;;;;;;;;;;4993210;28;20759;-76
2021/07/18 13:41:40;;;;;;;0.28;0.20;;;;;;;;;;4980144;28;20073;-77
2021/07/18 13:44:09;;;;;;;0.20;0.20;;;;;;;;;;4992720;28;20023;-77
2021/07/18 13:46:34;;;;;;;0.10;0.10;;;;;;;;;;4997301;28;20057;-76
2021/07/18 13:49:00;;;;;;;0.08;0.08;;;;;;;;;;5003568;28;20457;-76
2021/07/18 13:51:30;;;;;;;0.30;0.30;;;;;;;;;;4987877;28;20044;-76
2021/07/18 13:53:58;;;;;;;0.15;0.15;;;;;;;;;;5010561;28;20042;-75
2021/07/18 13:56:23;;;;;;;0.17;0.17;;;;;;;;;;4988049;28;20511;-76
2021/07/18 13:58:50;;;;;;;0.10;0.10;;;;;;;;;;4985567;28;20018;-76
2021/07/18 14:01:16;;;;;;;0.40;0.22;;;;;;;;;;5003806;28;20030;-76
2021/07/18 14:03:41;;;;;;;0.30;0.20;;;;;;;;;;5003630;28;20673;-76
2021/07/18 14:06:07;;;;;;;0.15;0.10;;;;;;;;;;5005005;28;20105;-75
2021/07/18 14:08:32;;;;;;;0.22;0.20;;;;;;;;;;4998744;28;20057;-76
2021/07/18 14:10:58;;;;;;;0.20;0.20;;;;;;;;;;4996336;28;20070;-76
2021/07/18 14:13:25;;;;;;;0.10;0.10;;;;;;;;;;4996976;28;20030;-76
2021/07/18 14:15:51;;;;;;;0.30;0.20;;;;;;;;;;4993026;28;20150;-76
2021/07/18 14:18:18;;;;;;;0.47;0.32;;;;;;;;;;5003080;28;20144;-76
2021/07/18 14:20:44;;;;;;;0.47;0.20;;;;;;;;;;4978474;28;20037;-76
2021/07/18 14:23:11;;;;;;;0.20;0.20;;;;;;;;;;4985538;28;20022;-76
2021/07/18 14:25:37;;;;;;;0.20;0.20;;;;;;;;;;5006489;28;20027;-76
2021/07/18 14:28:04;;;;;;;0.20;0.20;;;;;;;;;;5007093;28;20057;-76
2021/07/18 14:30:30;;;;;;;0.13;0.13;;;;;;;;;;5007811;28;20518;-76
2021/07/18 14:32:56;;;;;;;0.45;0.20;;;;;;;;;;5005274;28;20031;-78
2021/07/18 14:35:22;;;;;;;0.20;0.20;;;;;;;;;;5006220;28;20057;-76
2021/07/18 14:37:48;;;;;;;0.20;0.20;;;;;;;;;;4999471;28;20524;-76
2021/07/18 14:40:15;;;;;;;0.40;0.40;;;;;;;;;;5006424;28;20507;-75
2021/07/18 14:42:41;;;;;;;0.30;0.30;;;;;;;;;;4999864;28;20471;-76
2021/07/18 14:45:07;;;;;;;0.30;0.30;;;;;;;;;;5004244;28;20570;-76